sensor_id;sensor_type;location;lat;lon;timestamp;P1;durP1;ratioP1;P2;durP2;ratioP2
79212;SDS011;68639;52.380;9.822;2024-02-21T00:02:04;45.03;;;19.40;;
79212;SDS011;68639;52.380;9.822;2024-02-21T00:04:29;47.13;;;19.60;;
79212;SDS011;68639;52.380;9.822;2024-02-21T00:06:54;44.70;;;19.90;;
79212;SDS011;68639;52.380;9.822;2024-02-21T00:09:19;44.00;;;19.47;;
79212;SDS011;68639;52.380;9.822;2024-02-21T00:11:45;48.50;;;19.97;;
79212;SDS011;68639;52.380;9.822;2024-02-21T00:14:10;47.27;;;20.00;;
79212;SDS011;68639;52.380;9.822;2024-02-21T00:16:35;46.83;;;19.07;;
79212;SDS011;68639;52.380;9.822;2024-02-21T00:19:01;40.77;;;18.80;;
79212;SDS011;68639;52.380;9.822;2024-02-21T00:21:26;46.80;;;20.27;;
79212;SDS011;68639;52.380;9.822;2024-02-21T00:23:51;37.87;;;20.27;;
79212;SDS011;68639;52.380;9.822;2024-02-21T00:26:16;48.07;;;19.70;;
79212;SDS011;68639;52.380;9.822;2024-02-21T00:28:42;45.43;;;19.43;;
79212;SDS011;68639;52.380;9.822;2024-02-21T00:31:07;43.90;;;20.23;;
79212;SDS011;68639;52.380;9.822;2024-02-21T00:33:32;45.57;;;21.63;;
79212;SDS011;68639;52.380;9.822;2024-02-21T00:35:57;45.67;;;20.40;;
79212;SDS011;68639;52.380;9.822;2024-02-21T00:38:22;46.10;;;21.07;;
79212;SDS011;68639;52.380;9.822;2024-02-21T00:40:48;50.33;;;20.97;;
79212;SDS011;68639;52.380;9.822;2024-02-21T00:43:13;53.57;;;22.10;;
79212;SDS011;68639;52.380;9.822;2024-02-21T00:45:38;44.10;;;20.47;;
79212;SDS011;68639;52.380;9.822;2024-02-21T00:48:03;47.67;;;22.10;;
79212;SDS011;68639;52.380;9.822;2024-02-21T00:50:29;44.03;;;20.70;;
79212;SDS011;68639;52.380;9.822;2024-02-21T00:52:54;49.40;;;21.33;;
79212;SDS011;68639;52.380;9.822;2024-02-21T00:55:19;50.60;;;21.83;;
79212;SDS011;68639;52.380;9.822;2024-02-21T00:57:45;46.60;;;20.60;;
79212;SDS011;68639;52.380;9.822;2024-02-21T01:00:10;48.30;;;20.73;;
79212;SDS011;68639;52.380;9.822;2024-02-21T01:02:35;45.60;;;21.33;;
79212;SDS011;68639;52.380;9.822;2024-02-21T01:05:01;47.57;;;21.63;;
79212;SDS011;68639;52.380;9.822;2024-02-21T01:07:26;47.30;;;21.90;;
79212;SDS011;68639;52.380;9.822;2024-02-21T01:09:52;51.27;;;22.23;;
79212;SDS011;68639;52.380;9.822;2024-02-21T01:12:17;49.60;;;21.67;;
79212;SDS011;68639;52.380;9.822;2024-02-21T01:14:43;43.97;;;21.47;;
79212;SDS011;68639;52.380;9.822;2024-02-21T01:17:08;49.03;;;22.33;;
79212;SDS011;68639;52.380;9.822;2024-02-21T01:19:33;42.37;;;22.60;;
79212;SDS011;68639;52.380;9.822;2024-02-21T01:21:58;45.13;;;21.40;;
79212;SDS011;68639;52.380;9.822;2024-02-21T01:24:23;45.10;;;21.80;;
79212;SDS011;68639;52.380;9.822;2024-02-21T01:26:49;44.50;;;21.93;;
79212;SDS011;68639;52.380;9.822;2024-02-21T01:29:14;47.93;;;21.30;;
79212;SDS011;68639;52.380;9.822;2024-02-21T01:31:40;44.33;;;19.67;;
79212;SDS011;68639;52.380;9.822;2024-02-21T01:34:05;43.10;;;20.93;;
79212;SDS011;68639;52.380;9.822;2024-02-21T01:36:30;41.27;;;20.90;;
79212;SDS011;68639;52.380;9.822;2024-02-21T01:38:55;42.97;;;20.47;;
79212;SDS011;68639;52.380;9.822;2024-02-21T01:41:20;43.00;;;20.93;;
79212;SDS011;68639;52.380;9.822;2024-02-21T01:43:45;46.30;;;21.33;;
79212;SDS011;68639;52.380;9.822;2024-02-21T01:46:11;40.77;;;19.93;;
79212;SDS011;68639;52.380;9.822;2024-02-21T01:48:36;46.43;;;21.67;;
79212;SDS011;68639;52.380;9.822;2024-02-21T01:51:01;47.83;;;21.87;;
79212;SDS011;68639;52.380;9.822;2024-02-21T01:53:33;38.83;;;20.53;;
79212;SDS011;68639;52.380;9.822;2024-02-21T01:55:58;39.10;;;20.30;;
79212;SDS011;68639;52.380;9.822;2024-02-21T01:58:24;41.57;;;21.03;;
79212;SDS011;68639;52.380;9.822;2024-02-21T02:00:50;41.87;;;20.03;;
79212;SDS011;68639;52.380;9.822;2024-02-21T02:03:15;41.63;;;20.97;;
79212;SDS011;68639;52.380;9.822;2024-02-21T02:05:48;43.53;;;19.87;;
79212;SDS011;68639;52.380;9.822;2024-02-21T02:08:14;46.87;;;20.63;;
79212;SDS011;68639;52.380;9.822;2024-02-21T02:10:39;43.00;;;19.63;;
79212;SDS011;68639;52.380;9.822;2024-02-21T02:13:05;45.00;;;21.77;;
79212;SDS011;68639;52.380;9.822;2024-02-21T02:18:04;36.30;;;19.33;;
79212;SDS011;68639;52.380;9.822;2024-02-21T02:20:29;36.73;;;19.93;;
79212;SDS011;68639;52.380;9.822;2024-02-21T02:22:55;44.63;;;20.50;;
79212;SDS011;68639;52.380;9.822;2024-02-21T02:25:20;37.90;;;20.63;;
79212;SDS011;68639;52.380;9.822;2024-02-21T02:27:46;40.90;;;20.80;;
79212;SDS011;68639;52.380;9.822;2024-02-21T02:30:11;44.33;;;21.57;;
79212;SDS011;68639;52.380;9.822;2024-02-21T02:32:36;39.00;;;20.33;;
79212;SDS011;68639;52.380;9.822;2024-02-21T02:35:02;42.03;;;21.17;;
79212;SDS011;68639;52.380;9.822;2024-02-21T02:37:27;44.20;;;21.17;;
79212;SDS011;68639;52.380;9.822;2024-02-21T02:39:52;38.50;;;21.57;;
79212;SDS011;68639;52.380;9.822;2024-02-21T02:42:17;33.87;;;19.90;;
79212;SDS011;68639;52.380;9.822;2024-02-21T02:44:42;42.60;;;20.73;;
79212;SDS011;68639;52.380;9.822;2024-02-21T02:47:08;39.17;;;20.53;;
79212;SDS011;68639;52.380;9.822;2024-02-21T02:49:33;41.17;;;20.93;;
79212;SDS011;68639;52.380;9.822;2024-02-21T02:51:58;45.40;;;21.63;;
79212;SDS011;68639;52.380;9.822;2024-02-21T02:54:24;38.00;;;20.63;;
79212;SDS011;68639;52.380;9.822;2024-02-21T02:56:49;37.67;;;19.93;;
79212;SDS011;68639;52.380;9.822;2024-02-21T02:59:14;41.80;;;21.20;;
79212;SDS011;68639;52.380;9.822;2024-02-21T03:01:40;40.00;;;21.13;;
79212;SDS011;68639;52.380;9.822;2024-02-21T03:04:05;39.03;;;20.17;;
79212;SDS011;68639;52.380;9.822;2024-02-21T03:06:30;36.50;;;19.27;;
79212;SDS011;68639;52.380;9.822;2024-02-21T03:08:55;37.77;;;19.70;;
79212;SDS011;68639;52.380;9.822;2024-02-21T03:11:21;35.30;;;19.13;;
79212;SDS011;68639;52.380;9.822;2024-02-21T03:13:53;36.57;;;19.63;;
79212;SDS011;68639;52.380;9.822;2024-02-21T03:16:18;39.97;;;21.30;;
79212;SDS011;68639;52.380;9.822;2024-02-21T03:18:44;41.63;;;20.57;;
79212;SDS011;68639;52.380;9.822;2024-02-21T03:21:09;37.90;;;20.77;;
79212;SDS011;68639;52.380;9.822;2024-02-21T03:23:34;41.00;;;20.00;;
79212;SDS011;68639;52.380;9.822;2024-02-21T03:25:59;39.57;;;20.23;;
79212;SDS011;68639;52.380;9.822;2024-02-21T03:28:25;37.97;;;20.13;;
79212;SDS011;68639;52.380;9.822;2024-02-21T03:30:50;32.37;;;19.03;;
79212;SDS011;68639;52.380;9.822;2024-02-21T03:33:15;39.83;;;19.43;;
79212;SDS011;68639;52.380;9.822;2024-02-21T03:35:40;39.33;;;19.10;;
79212;SDS011;68639;52.380;9.822;2024-02-21T03:38:05;35.37;;;18.97;;
79212;SDS011;68639;52.380;9.822;2024-02-21T03:40:30;38.03;;;18.67;;
79212;SDS011;68639;52.380;9.822;2024-02-21T03:42:56;37.53;;;18.80;;
79212;SDS011;68639;52.380;9.822;2024-02-21T03:45:21;31.47;;;18.33;;
79212;SDS011;68639;52.380;9.822;2024-02-21T03:47:46;38.60;;;19.27;;
79212;SDS011;68639;52.380;9.822;2024-02-21T03:50:11;31.43;;;17.63;;
79212;SDS011;68639;52.380;9.822;2024-02-21T03:52:37;29.70;;;18.17;;
79212;SDS011;68639;52.380;9.822;2024-02-21T03:55:02;37.07;;;19.07;;
79212;SDS011;68639;52.380;9.822;2024-02-21T03:57:27;36.37;;;19.03;;
79212;SDS011;68639;52.380;9.822;2024-02-21T03:59:52;31.40;;;17.77;;
79212;SDS011;68639;52.380;9.822;2024-02-21T04:02:18;35.23;;;17.83;;
79212;SDS011;68639;52.380;9.822;2024-02-21T04:04:43;32.10;;;17.97;;
79212;SDS011;68639;52.380;9.822;2024-02-21T04:07:11;31.10;;;17.50;;
79212;SDS011;68639;52.380;9.822;2024-02-21T04:09:36;38.27;;;18.63;;
79212;SDS011;68639;52.380;9.822;2024-02-21T04:12:01;32.07;;;17.47;;
79212;SDS011;68639;52.380;9.822;2024-02-21T04:14:27;38.70;;;18.17;;
79212;SDS011;68639;52.380;9.822;2024-02-21T04:16:52;34.50;;;18.43;;
79212;SDS011;68639;52.380;9.822;2024-02-21T04:19:17;41.70;;;18.73;;
79212;SDS011;68639;52.380;9.822;2024-02-21T04:21:42;39.00;;;18.87;;
79212;SDS011;68639;52.380;9.822;2024-02-21T04:24:07;40.17;;;18.77;;
79212;SDS011;68639;52.380;9.822;2024-02-21T04:26:33;34.13;;;18.47;;
79212;SDS011;68639;52.380;9.822;2024-02-21T04:28:58;31.50;;;17.23;;
79212;SDS011;68639;52.380;9.822;2024-02-21T04:31:24;36.37;;;17.80;;
79212;SDS011;68639;52.380;9.822;2024-02-21T04:33:49;36.30;;;18.30;;
79212;SDS011;68639;52.380;9.822;2024-02-21T04:36:14;36.50;;;18.53;;
79212;SDS011;68639;52.380;9.822;2024-02-21T04:38:40;36.30;;;17.30;;
79212;SDS011;68639;52.380;9.822;2024-02-21T04:41:05;37.50;;;19.20;;
79212;SDS011;68639;52.380;9.822;2024-02-21T04:43:31;38.13;;;18.80;;
79212;SDS011;68639;52.380;9.822;2024-02-21T04:45:56;36.17;;;18.10;;
79212;SDS011;68639;52.380;9.822;2024-02-21T04:48:21;36.30;;;18.90;;
79212;SDS011;68639;52.380;9.822;2024-02-21T04:50:47;33.77;;;18.87;;
79212;SDS011;68639;52.380;9.822;2024-02-21T04:53:12;37.00;;;19.37;;
79212;SDS011;68639;52.380;9.822;2024-02-21T04:55:37;41.07;;;19.43;;
79212;SDS011;68639;52.380;9.822;2024-02-21T04:58:02;38.73;;;20.23;;
79212;SDS011;68639;52.380;9.822;2024-02-21T05:00:28;41.50;;;20.70;;
79212;SDS011;68639;52.380;9.822;2024-02-21T05:02:53;41.50;;;19.00;;
79212;SDS011;68639;52.380;9.822;2024-02-21T05:05:18;40.33;;;20.57;;
79212;SDS011;68639;52.380;9.822;2024-02-21T05:07:43;44.00;;;20.83;;
79212;SDS011;68639;52.380;9.822;2024-02-21T05:10:08;49.50;;;21.40;;
79212;SDS011;68639;52.380;9.822;2024-02-21T05:12:34;42.60;;;21.70;;
79212;SDS011;68639;52.380;9.822;2024-02-21T05:14:59;37.07;;;22.07;;
79212;SDS011;68639;52.380;9.822;2024-02-21T05:17:25;44.23;;;22.10;;
79212;SDS011;68639;52.380;9.822;2024-02-21T05:19:50;36.87;;;20.80;;
79212;SDS011;68639;52.380;9.822;2024-02-21T05:22:15;44.37;;;21.40;;
79212;SDS011;68639;52.380;9.822;2024-02-21T05:24:40;40.10;;;21.30;;
79212;SDS011;68639;52.380;9.822;2024-02-21T05:27:05;45.30;;;21.73;;
79212;SDS011;68639;52.380;9.822;2024-02-21T05:29:30;42.70;;;22.37;;
79212;SDS011;68639;52.380;9.822;2024-02-21T05:31:56;41.67;;;21.47;;
79212;SDS011;68639;52.380;9.822;2024-02-21T05:34:22;40.77;;;21.17;;
79212;SDS011;68639;52.380;9.822;2024-02-21T05:36:47;36.83;;;20.50;;
79212;SDS011;68639;52.380;9.822;2024-02-21T05:39:14;46.50;;;20.90;;
79212;SDS011;68639;52.380;9.822;2024-02-21T05:41:39;38.37;;;19.90;;
79212;SDS011;68639;52.380;9.822;2024-02-21T05:44:05;38.17;;;19.83;;
79212;SDS011;68639;52.380;9.822;2024-02-21T05:46:30;38.03;;;21.37;;
79212;SDS011;68639;52.380;9.822;2024-02-21T05:48:55;38.70;;;19.87;;
79212;SDS011;68639;52.380;9.822;2024-02-21T05:51:20;38.50;;;20.70;;
79212;SDS011;68639;52.380;9.822;2024-02-21T05:53:46;41.03;;;20.20;;
79212;SDS011;68639;52.380;9.822;2024-02-21T05:56:11;30.73;;;19.77;;
79212;SDS011;68639;52.380;9.822;2024-02-21T05:58:37;36.03;;;20.03;;
79212;SDS011;68639;52.380;9.822;2024-02-21T06:01:02;47.80;;;21.10;;
79212;SDS011;68639;52.380;9.822;2024-02-21T06:03:28;37.77;;;21.10;;
79212;SDS011;68639;52.380;9.822;2024-02-21T06:05:53;39.23;;;21.07;;
79212;SDS011;68639;52.380;9.822;2024-02-21T06:08:19;37.60;;;21.30;;
79212;SDS011;68639;52.380;9.822;2024-02-21T06:10:45;40.17;;;22.23;;
79212;SDS011;68639;52.380;9.822;2024-02-21T06:13:10;43.03;;;22.87;;
79212;SDS011;68639;52.380;9.822;2024-02-21T06:15:35;36.23;;;21.73;;
79212;SDS011;68639;52.380;9.822;2024-02-21T06:18:00;41.73;;;21.87;;
79212;SDS011;68639;52.380;9.822;2024-02-21T06:20:25;45.63;;;22.37;;
79212;SDS011;68639;52.380;9.822;2024-02-21T06:22:51;36.50;;;20.73;;
79212;SDS011;68639;52.380;9.822;2024-02-21T06:25:16;40.60;;;21.83;;
79212;SDS011;68639;52.380;9.822;2024-02-21T06:27:41;37.17;;;21.00;;
79212;SDS011;68639;52.380;9.822;2024-02-21T06:30:06;39.17;;;20.90;;
79212;SDS011;68639;52.380;9.822;2024-02-21T06:32:32;42.90;;;20.77;;
79212;SDS011;68639;52.380;9.822;2024-02-21T06:34:57;39.47;;;21.20;;
79212;SDS011;68639;52.380;9.822;2024-02-21T06:37:22;33.97;;;20.47;;
79212;SDS011;68639;52.380;9.822;2024-02-21T06:39:47;45.23;;;20.37;;
79212;SDS011;68639;52.380;9.822;2024-02-21T06:42:12;39.70;;;20.93;;
79212;SDS011;68639;52.380;9.822;2024-02-21T06:44:37;34.87;;;21.43;;
79212;SDS011;68639;52.380;9.822;2024-02-21T06:47:05;37.40;;;20.20;;
79212;SDS011;68639;52.380;9.822;2024-02-21T06:49:30;44.87;;;21.30;;
79212;SDS011;68639;52.380;9.822;2024-02-21T06:51:55;42.90;;;21.87;;
79212;SDS011;68639;52.380;9.822;2024-02-21T06:54:21;38.20;;;20.27;;
79212;SDS011;68639;52.380;9.822;2024-02-21T06:56:46;38.43;;;19.17;;
79212;SDS011;68639;52.380;9.822;2024-02-21T06:59:11;35.17;;;21.13;;
79212;SDS011;68639;52.380;9.822;2024-02-21T07:01:43;36.93;;;20.50;;
79212;SDS011;68639;52.380;9.822;2024-02-21T07:04:09;34.83;;;21.20;;
79212;SDS011;68639;52.380;9.822;2024-02-21T07:06:34;36.43;;;20.27;;
79212;SDS011;68639;52.380;9.822;2024-02-21T07:08:59;39.33;;;21.03;;
79212;SDS011;68639;52.380;9.822;2024-02-21T07:11:24;40.13;;;20.20;;
79212;SDS011;68639;52.380;9.822;2024-02-21T07:13:49;34.30;;;18.73;;
79212;SDS011;68639;52.380;9.822;2024-02-21T07:16:15;41.07;;;20.73;;
79212;SDS011;68639;52.380;9.822;2024-02-21T07:18:40;40.83;;;21.07;;
79212;SDS011;68639;52.380;9.822;2024-02-21T07:21:05;45.23;;;19.97;;
79212;SDS011;68639;52.380;9.822;2024-02-21T07:23:30;36.67;;;21.43;;
79212;SDS011;68639;52.380;9.822;2024-02-21T07:25:56;34.00;;;19.70;;
79212;SDS011;68639;52.380;9.822;2024-02-21T07:28:21;31.60;;;19.00;;
79212;SDS011;68639;52.380;9.822;2024-02-21T07:30:46;36.80;;;19.00;;
79212;SDS011;68639;52.380;9.822;2024-02-21T07:33:11;37.47;;;19.10;;
79212;SDS011;68639;52.380;9.822;2024-02-21T07:35:36;34.97;;;19.00;;
79212;SDS011;68639;52.380;9.822;2024-02-21T07:38:06;32.23;;;18.53;;
79212;SDS011;68639;52.380;9.822;2024-02-21T07:40:33;32.73;;;17.33;;
79212;SDS011;68639;52.380;9.822;2024-02-21T07:42:58;36.13;;;18.10;;
79212;SDS011;68639;52.380;9.822;2024-02-21T07:45:23;35.60;;;18.43;;
79212;SDS011;68639;52.380;9.822;2024-02-21T07:47:49;31.20;;;17.10;;
79212;SDS011;68639;52.380;9.822;2024-02-21T07:50:14;31.70;;;17.40;;
79212;SDS011;68639;52.380;9.822;2024-02-21T07:52:40;31.47;;;16.97;;
79212;SDS011;68639;52.380;9.822;2024-02-21T07:55:05;41.20;;;16.87;;
79212;SDS011;68639;52.380;9.822;2024-02-21T07:57:30;32.07;;;17.43;;
79212;SDS011;68639;52.380;9.822;2024-02-21T07:59:55;31.20;;;17.07;;
79212;SDS011;68639;52.380;9.822;2024-02-21T08:02:21;29.13;;;16.97;;
79212;SDS011;68639;52.380;9.822;2024-02-21T08:04:46;28.70;;;16.73;;
79212;SDS011;68639;52.380;9.822;2024-02-21T08:07:11;34.37;;;16.70;;
79212;SDS011;68639;52.380;9.822;2024-02-21T08:09:36;31.73;;;16.17;;
79212;SDS011;68639;52.380;9.822;2024-02-21T08:12:03;30.63;;;16.37;;
79212;SDS011;68639;52.380;9.822;2024-02-21T08:14:28;31.80;;;15.90;;
79212;SDS011;68639;52.380;9.822;2024-02-21T08:16:53;30.70;;;15.80;;
79212;SDS011;68639;52.380;9.822;2024-02-21T08:19:20;34.80;;;16.13;;
79212;SDS011;68639;52.380;9.822;2024-02-21T08:21:45;33.87;;;15.77;;
79212;SDS011;68639;52.380;9.822;2024-02-21T08:24:14;27.33;;;16.33;;
79212;SDS011;68639;52.380;9.822;2024-02-21T08:26:40;31.20;;;15.27;;
79212;SDS011;68639;52.380;9.822;2024-02-21T08:29:05;26.30;;;14.30;;
79212;SDS011;68639;52.380;9.822;2024-02-21T08:31:30;32.80;;;15.43;;
79212;SDS011;68639;52.380;9.822;2024-02-21T08:34:02;30.20;;;14.83;;
79212;SDS011;68639;52.380;9.822;2024-02-21T08:36:32;26.10;;;14.03;;
79212;SDS011;68639;52.380;9.822;2024-02-21T08:38:57;27.63;;;14.43;;
79212;SDS011;68639;52.380;9.822;2024-02-21T08:41:23;25.90;;;14.10;;
79212;SDS011;68639;52.380;9.822;2024-02-21T08:43:49;28.93;;;14.17;;
79212;SDS011;68639;52.380;9.822;2024-02-21T08:46:15;29.87;;;14.37;;
79212;SDS011;68639;52.380;9.822;2024-02-21T08:48:40;26.87;;;14.27;;
79212;SDS011;68639;52.380;9.822;2024-02-21T08:51:05;30.23;;;13.33;;
79212;SDS011;68639;52.380;9.822;2024-02-21T08:53:31;25.43;;;13.00;;
79212;SDS011;68639;52.380;9.822;2024-02-21T08:55:56;30.50;;;12.30;;
79212;SDS011;68639;52.380;9.822;2024-02-21T08:58:21;29.87;;;12.70;;
79212;SDS011;68639;52.380;9.822;2024-02-21T09:00:48;28.47;;;13.43;;
79212;SDS011;68639;52.380;9.822;2024-02-21T09:03:13;24.87;;;12.67;;
79212;SDS011;68639;52.380;9.822;2024-02-21T09:05:38;25.83;;;12.10;;
79212;SDS011;68639;52.380;9.822;2024-02-21T09:08:04;27.23;;;12.10;;
79212;SDS011;68639;52.380;9.822;2024-02-21T09:10:29;28.40;;;11.53;;
79212;SDS011;68639;52.380;9.822;2024-02-21T09:12:55;23.87;;;10.73;;
79212;SDS011;68639;52.380;9.822;2024-02-21T09:15:20;26.10;;;11.60;;
79212;SDS011;68639;52.380;9.822;2024-02-21T09:17:46;21.53;;;10.27;;
79212;SDS011;68639;52.380;9.822;2024-02-21T09:20:11;22.27;;;10.63;;
79212;SDS011;68639;52.380;9.822;2024-02-21T09:22:37;22.43;;;9.20;;
79212;SDS011;68639;52.380;9.822;2024-02-21T09:25:03;18.37;;;9.63;;
79212;SDS011;68639;52.380;9.822;2024-02-21T09:27:29;17.83;;;8.97;;
79212;SDS011;68639;52.380;9.822;2024-02-21T09:29:55;24.93;;;9.53;;
79212;SDS011;68639;52.380;9.822;2024-02-21T09:32:20;20.97;;;9.10;;
79212;SDS011;68639;52.380;9.822;2024-02-21T09:34:45;17.30;;;8.30;;
79212;SDS011;68639;52.380;9.822;2024-02-21T09:37:10;22.00;;;9.20;;
79212;SDS011;68639;52.380;9.822;2024-02-21T09:39:35;20.10;;;8.03;;
79212;SDS011;68639;52.380;9.822;2024-02-21T09:42:03;16.90;;;7.53;;
79212;SDS011;68639;52.380;9.822;2024-02-21T09:44:32;23.50;;;9.17;;
79212;SDS011;68639;52.380;9.822;2024-02-21T09:47:06;18.80;;;8.10;;
79212;SDS011;68639;52.380;9.822;2024-02-21T09:49:32;19.03;;;7.73;;
79212;SDS011;68639;52.380;9.822;2024-02-21T09:51:59;17.17;;;7.40;;
79212;SDS011;68639;52.380;9.822;2024-02-21T09:54:25;17.57;;;8.47;;
79212;SDS011;68639;52.380;9.822;2024-02-21T09:56:50;19.00;;;8.20;;
79212;SDS011;68639;52.380;9.822;2024-02-21T09:59:16;19.67;;;8.47;;
79212;SDS011;68639;52.380;9.822;2024-02-21T10:01:44;21.67;;;7.07;;
79212;SDS011;68639;52.380;9.822;2024-02-21T10:04:11;15.03;;;7.17;;
79212;SDS011;68639;52.380;9.822;2024-02-21T10:06:37;14.37;;;6.83;;
79212;SDS011;68639;52.380;9.822;2024-02-21T10:09:03;19.10;;;7.17;;
79212;SDS011;68639;52.380;9.822;2024-02-21T10:11:29;17.63;;;6.90;;
79212;SDS011;68639;52.380;9.822;2024-02-21T10:14:03;18.47;;;8.03;;
79212;SDS011;68639;52.380;9.822;2024-02-21T10:16:30;15.17;;;7.10;;
79212;SDS011;68639;52.380;9.822;2024-02-21T10:18:55;14.23;;;7.30;;
79212;SDS011;68639;52.380;9.822;2024-02-21T10:21:20;14.87;;;7.13;;
79212;SDS011;68639;52.380;9.822;2024-02-21T10:23:48;16.40;;;6.27;;
79212;SDS011;68639;52.380;9.822;2024-02-21T10:26:14;15.07;;;6.57;;
79212;SDS011;68639;52.380;9.822;2024-02-21T10:28:40;18.90;;;6.87;;
79212;SDS011;68639;52.380;9.822;2024-02-21T10:31:07;16.80;;;6.23;;
79212;SDS011;68639;52.380;9.822;2024-02-21T10:33:32;15.43;;;6.13;;
79212;SDS011;68639;52.380;9.822;2024-02-21T10:36:05;15.23;;;6.07;;
79212;SDS011;68639;52.380;9.822;2024-02-21T10:38:31;16.57;;;6.20;;
79212;SDS011;68639;52.380;9.822;2024-02-21T10:40:56;14.03;;;5.70;;
79212;SDS011;68639;52.380;9.822;2024-02-21T10:43:23;12.17;;;5.20;;
79212;SDS011;68639;52.380;9.822;2024-02-21T10:45:49;19.03;;;5.43;;
79212;SDS011;68639;52.380;9.822;2024-02-21T10:48:15;17.73;;;5.90;;
79212;SDS011;68639;52.380;9.822;2024-02-21T10:50:56;12.97;;;5.07;;
79212;SDS011;68639;52.380;9.822;2024-02-21T10:53:41;10.80;;;4.87;;
79212;SDS011;68639;52.380;9.822;2024-02-21T10:58:34;10.60;;;4.20;;
79212;SDS011;68639;52.380;9.822;2024-02-21T11:00:59;16.63;;;4.53;;
79212;SDS011;68639;52.380;9.822;2024-02-21T11:03:24;12.07;;;3.77;;
79212;SDS011;68639;52.380;9.822;2024-02-21T11:05:50;14.10;;;3.97;;
79212;SDS011;68639;52.380;9.822;2024-02-21T11:08:16;11.50;;;4.20;;
79212;SDS011;68639;52.380;9.822;2024-02-21T11:10:45;12.60;;;3.77;;
79212;SDS011;68639;52.380;9.822;2024-02-21T11:13:10;13.27;;;4.00;;
79212;SDS011;68639;52.380;9.822;2024-02-21T11:15:36;13.33;;;3.70;;
79212;SDS011;68639;52.380;9.822;2024-02-21T11:18:01;15.53;;;3.90;;
79212;SDS011;68639;52.380;9.822;2024-02-21T11:20:33;15.03;;;4.00;;
79212;SDS011;68639;52.380;9.822;2024-02-21T11:22:59;13.37;;;3.77;;
79212;SDS011;68639;52.380;9.822;2024-02-21T11:25:24;7.97;;;3.60;;
79212;SDS011;68639;52.380;9.822;2024-02-21T11:27:50;10.75;;;3.55;;
79212;SDS011;68639;52.380;9.822;2024-02-21T11:30:26;10.17;;;3.70;;
79212;SDS011;68639;52.380;9.822;2024-02-21T11:32:58;9.40;;;3.30;;
79212;SDS011;68639;52.380;9.822;2024-02-21T11:35:24;10.63;;;3.20;;
79212;SDS011;68639;52.380;9.822;2024-02-21T11:37:49;11.57;;;3.53;;
79212;SDS011;68639;52.380;9.822;2024-02-21T11:40:14;10.10;;;3.60;;
79212;SDS011;68639;52.380;9.822;2024-02-21T11:42:40;10.87;;;3.60;;
79212;SDS011;68639;52.380;9.822;2024-02-21T11:45:05;11.07;;;3.33;;
79212;SDS011;68639;52.380;9.822;2024-02-21T11:47:31;12.53;;;3.13;;
79212;SDS011;68639;52.380;9.822;2024-02-21T11:49:56;11.90;;;3.10;;
79212;SDS011;68639;52.380;9.822;2024-02-21T11:52:21;10.18;;;3.35;;
79212;SDS011;68639;52.380;9.822;2024-02-21T11:54:49;14.50;;;3.72;;
79212;SDS011;68639;52.380;9.822;2024-02-21T11:57:15;11.70;;;3.30;;
79212;SDS011;68639;52.380;9.822;2024-02-21T11:59:40;10.32;;;3.22;;
79212;SDS011;68639;52.380;9.822;2024-02-21T12:02:06;6.68;;;3.03;;
79212;SDS011;68639;52.380;9.822;2024-02-21T12:04:31;14.23;;;3.43;;
79212;SDS011;68639;52.380;9.822;2024-02-21T12:06:57;9.50;;;3.60;;
79212;SDS011;68639;52.380;9.822;2024-02-21T12:09:23;8.30;;;3.28;;
79212;SDS011;68639;52.380;9.822;2024-02-21T12:11:56;7.43;;;2.90;;
79212;SDS011;68639;52.380;9.822;2024-02-21T12:14:22;8.67;;;3.33;;
79212;SDS011;68639;52.380;9.822;2024-02-21T12:16:47;7.80;;;3.40;;
79212;SDS011;68639;52.380;9.822;2024-02-21T12:19:12;7.72;;;3.30;;
79212;SDS011;68639;52.380;9.822;2024-02-21T12:21:38;10.32;;;3.55;;
79212;SDS011;68639;52.380;9.822;2024-02-21T12:24:13;6.53;;;3.42;;
79212;SDS011;68639;52.380;9.822;2024-02-21T12:26:39;10.48;;;3.15;;
79212;SDS011;68639;52.380;9.822;2024-02-21T12:29:04;9.03;;;3.63;;
79212;SDS011;68639;52.380;9.822;2024-02-21T12:31:29;6.72;;;3.10;;
79212;SDS011;68639;52.380;9.822;2024-02-21T12:33:55;7.82;;;3.08;;
79212;SDS011;68639;52.380;9.822;2024-02-21T12:36:20;12.02;;;3.55;;
79212;SDS011;68639;52.380;9.822;2024-02-21T12:38:45;9.80;;;3.97;;
79212;SDS011;68639;52.380;9.822;2024-02-21T12:41:11;12.93;;;4.28;;
79212;SDS011;68639;52.380;9.822;2024-02-21T12:43:36;9.85;;;3.85;;
79212;SDS011;68639;52.380;9.822;2024-02-21T12:46:03;10.60;;;4.00;;
79212;SDS011;68639;52.380;9.822;2024-02-21T12:48:28;10.05;;;4.30;;
79212;SDS011;68639;52.380;9.822;2024-02-21T12:50:54;9.32;;;3.83;;
79212;SDS011;68639;52.380;9.822;2024-02-21T12:53:19;11.07;;;5.25;;
79212;SDS011;68639;52.380;9.822;2024-02-21T12:55:46;14.70;;;5.60;;
79212;SDS011;68639;52.380;9.822;2024-02-21T12:58:11;9.80;;;5.10;;
79212;SDS011;68639;52.380;9.822;2024-02-21T13:00:38;15.50;;;6.72;;
79212;SDS011;68639;52.380;9.822;2024-02-21T13:03:04;12.88;;;6.18;;
79212;SDS011;68639;52.380;9.822;2024-02-21T13:05:29;13.68;;;6.20;;
79212;SDS011;68639;52.380;9.822;2024-02-21T13:07:54;15.40;;;6.38;;
79212;SDS011;68639;52.380;9.822;2024-02-21T13:10:19;12.32;;;6.00;;
79212;SDS011;68639;52.380;9.822;2024-02-21T13:12:44;14.35;;;6.53;;
79212;SDS011;68639;52.380;9.822;2024-02-21T13:15:10;12.65;;;6.20;;
79212;SDS011;68639;52.380;9.822;2024-02-21T13:17:37;14.40;;;6.90;;
79212;SDS011;68639;52.380;9.822;2024-02-21T13:20:02;15.55;;;6.25;;
79212;SDS011;68639;52.380;9.822;2024-02-21T13:22:28;12.48;;;5.90;;
79212;SDS011;68639;52.380;9.822;2024-02-21T13:24:53;13.90;;;7.18;;
79212;SDS011;68639;52.380;9.822;2024-02-21T13:27:18;12.70;;;6.07;;
79212;SDS011;68639;52.380;9.822;2024-02-21T13:29:43;11.45;;;6.72;;
79212;SDS011;68639;52.380;9.822;2024-02-21T13:32:10;11.90;;;6.10;;
79212;SDS011;68639;52.380;9.822;2024-02-21T13:34:35;13.90;;;6.85;;
79212;SDS011;68639;52.380;9.822;2024-02-21T13:37:00;14.48;;;7.25;;
79212;SDS011;68639;52.380;9.822;2024-02-21T13:39:25;16.15;;;6.50;;
79212;SDS011;68639;52.380;9.822;2024-02-21T13:41:51;13.50;;;6.40;;
79212;SDS011;68639;52.380;9.822;2024-02-21T13:44:16;12.57;;;5.82;;
79212;SDS011;68639;52.380;9.822;2024-02-21T13:46:41;16.67;;;6.20;;
79212;SDS011;68639;52.380;9.822;2024-02-21T13:49:06;15.95;;;6.30;;
79212;SDS011;68639;52.380;9.822;2024-02-21T13:51:32;15.37;;;6.27;;
79212;SDS011;68639;52.380;9.822;2024-02-21T13:53:58;12.10;;;5.88;;
79212;SDS011;68639;52.380;9.822;2024-02-21T13:56:24;13.13;;;6.40;;
79212;SDS011;68639;52.380;9.822;2024-02-21T13:58:49;18.65;;;6.10;;
79212;SDS011;68639;52.380;9.822;2024-02-21T14:01:14;14.30;;;5.78;;
79212;SDS011;68639;52.380;9.822;2024-02-21T14:03:39;14.10;;;6.20;;
79212;SDS011;68639;52.380;9.822;2024-02-21T14:06:04;11.43;;;5.18;;
79212;SDS011;68639;52.380;9.822;2024-02-21T14:08:30;13.75;;;5.30;;
79212;SDS011;68639;52.380;9.822;2024-02-21T14:10:56;12.43;;;5.28;;
79212;SDS011;68639;52.380;9.822;2024-02-21T14:13:24;11.38;;;4.40;;
79212;SDS011;68639;52.380;9.822;2024-02-21T14:15:49;11.15;;;3.97;;
79212;SDS011;68639;52.380;9.822;2024-02-21T14:18:14;9.13;;;3.63;;
79212;SDS011;68639;52.380;9.822;2024-02-21T14:20:41;8.90;;;3.57;;
79212;SDS011;68639;52.380;9.822;2024-02-21T14:23:06;10.55;;;4.03;;